This is the latest recevied weather packets stored in our database for station/object W0DP-11. If no packets are shown the sender has not sent any weather packets the latest 10 day(s).
| Time | Temp. | Humidity | Pressure | Rain* | Wind** | Luminosity | Snow |
|---|---|---|---|---|---|---|---|
| 1777306215 | 5.56° C | 96% | 1006.7 hPa | 2.79 mm | - | - | - |
| 1777305015 | 5° C | 98% | 1007 hPa | 2.79 mm | - | - | - |
| 1777303215 | 3.89° C | 96% | 1007.4 hPa | 3.81 mm | - | - | - |
| 1777299637 | 3.89° C | 95% | 1009.2 hPa | 3.56 mm | - | - | - |
| 1777299018 | 3.89° C | 95% | 1009.5 hPa | 3.81 mm | - | - | - |
| 1777298417 | 3.89° C | 93% | 1009.4 hPa | 3.3 mm | - | - | - |
| 1777293617 | 4.44° C | 90% | 1010.9 hPa | 0 mm | - | - | - |
| 1777292417 | 3.89° C | 89% | 1011.3 hPa | 0 mm | - | - | - |
| 1777289437 | 3.89° C | 89% | 1009.9 hPa | 0 mm | - | - | - |
| 1777286417 | 5.56° C | 83% | 1012.4 hPa | 0 mm | - | - | - |
| 1777284617 | 5.56° C | 82% | 1012.9 hPa | 0 mm | - | - | - |
| 1777283417 | 6.11° C | 80% | 1013.1 hPa | 0 mm | - | - | - |
| 1777282217 | 6.11° C | 77% | 1013.4 hPa | 0 mm | - | - | - |
| 1777279237 | 5.56° C | 70% | 1014.2 hPa | 0 mm | - | - | - |
| 1777275616 | 5° C | 73% | 1015.4 hPa | 0 mm | - | - | - |
| 1777269616 | 3.89° C | 88% | 1016.4 hPa | 0 mm | - | - | - |
| 1777263016 | 4.44° C | 93% | 1017.7 hPa | 0 mm | - | - | - |
| 1777262416 | 4.44° C | 92% | 1017.8 hPa | 0 mm | - | - | - |
| 1777261816 | 4.44° C | 92% | 1018.1 hPa | 0 mm | - | - | - |
| 1777260036 | 4.44° C | 92% | 1018.1 hPa | 0 mm | - | - | - |
| 1777259436 | 4.44° C | 91% | 1018.1 hPa | 0 mm | - | - | - |
| 1777246816 | 6.11° C | 86% | 1018.5 hPa | 0 mm | - | - | - |
| 1777242616 | 6.67° C | 81% | 1019.1 hPa | 0 mm | - | - | - |
| 1777238416 | 6.67° C | 82% | 1019.4 hPa | 0 mm | - | - | - |
| 1777229437 | 4.44° C | 89% | 1019.7 hPa | 0 mm | - | - | - |
* Rain latest hour (hover to see other rain measurements)
** Current wind speed in m/s (hover to see current wind gust speed)